LSZCLSME

Guest
Details From LSZC - Buochs
To LSME - Emmen
Flight Number -
Tags generated
Created
Modified
Stats Distance 8 nm / 15 km
Max Altitude 0 ft / 0 m
Waypoints 2
Social Downloads 1
Likes 0
Share

Download

Looking for another format? Having issues loading an existing format? Contact us
Advertisement - Login to hide

Notes

Basic altitude profile: - Ascent Rate: 800ft/min - Ascent Speed: 90kts - Cruise Altitude: 6000ft - Cruise Speed: 120kts - Descent Rate: 700ft/min - Descent Speed: 90kts Options: - Use NATs: yes - Use PACOTS: yes - Use low airways: yes - Use high airways: yes

Route

LSZC LSME

ID Type Via Altitude (ft/m) Position (lat/lon) Dist (leg/tot) Name
O LSZC APT - 0 / 0 46.97319 / 8.39736 - / 0 nm Buochs
O LSME APT - 0 / 0 47.09237 / 8.30512 8 / 8 nm Emmen

Altitude Profile

Advertisement - Login to hide

LSZC

Details ICAO LSZC (BXO)
Name Buochs
Region Switzerland
Timezone Europe/Zurich (UTC+2.0)
Stats Elevation 1,475 ft / 450 m (AMSL)
Location 46.973200° 8.397360°
Runways 2
Magnetic Variation 2.716° E

METAR

LSZC 080650Z AUTO 29003KT CAVOK 08/03 Q1020

Decode

TAF

Not found

Departure Runways

ID Width Length Bearing (true/mag) Surface Threshold Overrun Markings Lighting
07L 131 ft / 40 m 6,570 ft / 2,002 m 64.09° / 61.38° ASPHALT 0 ft / 0 m 650 ft / 198 m APP EDGE THRESHOLD
07R 131 ft / 40 m 4,827 ft / 1,471 m 64.00° / 61.29° ASPHALT 0 ft / 0 m 1,161 ft / 354 m APP
25L 131 ft / 40 m 4,827 ft / 1,471 m 244.01° / 241.30° ASPHALT 0 ft / 0 m 1,161 ft / 354 m APP
25R 131 ft / 40 m 6,570 ft / 2,002 m 244.11° / 241.39° ASPHALT 0 ft / 0 m 650 ft / 198 m APP EDGE THRESHOLD SSALF

LSME

Details ICAO LSME (EML)
Name Emmen
Region Switzerland
Timezone Europe/Zurich (UTC+2.0)
Stats Elevation 1,400 ft / 427 m (AMSL)
Location 47.092300° 8.305070°
Runways 1
Magnetic Variation 2.695° E

METAR

LSME 080650Z AUTO 00000KT 9999NDV NCD 07/04 Q1020 RMK

Decode

TAF

Not found

Destination Runways

ID Width Length Bearing (true/mag) Surface Threshold Overrun Markings Lighting
04 130 ft / 40 m 8,265 ft / 2,519 m 37.58° / 34.88° ASPHALT 427 ft / 130 m 797 ft / 243 m VISUAL EDGE THRESHOLD ALSF-I REIL-OMNI
22 130 ft / 40 m 8,265 ft / 2,519 m 217.59° / 214.90° ASPHALT 591 ft / 180 m 748 ft / 228 m VISUAL EDGE THRESHOLD ALSF-II TDZ REIL-OMNI

Approach Navaids

Runway Type Ident Frequency Range Bearing (true/mag) Slope Elevation
22 DME IEM 110.35 MHz 18 nm / 33 km - - 1,406 ft / 429 m (AMSL)
22 LOC-ILS IEM 110.35 MHz 18 nm / 33 km 217.59° / 214.89 ° - 1,400 ft / 427 m (AMSL)
22 GS IEM 110.35 MHz 10 nm / 19 km 217.59° / 214.89 ° 4.00° 1,400 ft / 427 m (AMSL)